sensor_id;sensor_type;location;lat;lon;timestamp;pressure;altitude;pressure_sealevel;temperature;humidity
37206;BME280;23099;42.636;23.198;2023-05-10T00:00:03;92172.56;;;8.64;100.00
37206;BME280;23099;42.636;23.198;2023-05-10T00:02:30;92168.41;;;8.66;100.00
37206;BME280;23099;42.636;23.198;2023-05-10T00:04:56;92166.19;;;8.68;100.00
37206;BME280;23099;42.636;23.198;2023-05-10T00:07:23;92167.63;;;8.66;100.00
37206;BME280;23099;42.636;23.198;2023-05-10T00:09:50;92161.13;;;8.63;100.00
37206;BME280;23099;42.636;23.198;2023-05-10T00:12:18;92158.53;;;8.67;100.00
37206;BME280;23099;42.636;23.198;2023-05-10T00:14:45;92159.94;;;8.61;100.00
37206;BME280;23099;42.636;23.198;2023-05-10T00:17:11;92156.06;;;8.58;100.00
37206;BME280;23099;42.636;23.198;2023-05-10T00:19:38;92154.59;;;8.61;100.00
37206;BME280;23099;42.636;23.198;2023-05-10T00:22:05;92151.25;;;8.64;100.00
37206;BME280;23099;42.636;23.198;2023-05-10T00:24:31;92154.94;;;8.59;100.00
37206;BME280;23099;42.636;23.198;2023-05-10T00:26:58;92150.13;;;8.49;100.00
37206;BME280;23099;42.636;23.198;2023-05-10T00:29:27;92143.31;;;8.51;100.00
37206;BME280;23099;42.636;23.198;2023-05-10T00:31:54;92139.38;;;8.45;100.00
37206;BME280;23099;42.636;23.198;2023-05-10T00:34:21;92148.06;;;8.42;100.00
37206;BME280;23099;42.636;23.198;2023-05-10T00:36:48;92149.00;;;8.50;100.00
37206;BME280;23099;42.636;23.198;2023-05-10T00:39:14;92147.53;;;8.37;100.00
37206;BME280;23099;42.636;23.198;2023-05-10T00:41:41;92145.47;;;8.46;100.00
37206;BME280;23099;42.636;23.198;2023-05-10T00:44:08;92144.09;;;8.36;100.00
37206;BME280;23099;42.636;23.198;2023-05-10T00:46:36;92148.06;;;8.42;100.00
37206;BME280;23099;42.636;23.198;2023-05-10T00:49:02;92138.00;;;8.51;100.00
37206;BME280;23099;42.636;23.198;2023-05-10T00:51:29;92143.31;;;8.51;100.00
37206;BME280;23099;42.636;23.198;2023-05-10T00:53:57;92127.72;;;8.50;100.00
37206;BME280;23099;42.636;23.198;2023-05-10T00:56:24;92127.75;;;8.38;100.00
37206;BME280;23099;42.636;23.198;2023-05-10T00:58:51;92131.19;;;8.38;100.00
37206;BME280;23099;42.636;23.198;2023-05-10T01:01:19;92134.16;;;8.49;100.00
37206;BME280;23099;42.636;23.198;2023-05-10T01:03:47;92134.50;;;8.47;100.00
37206;BME280;23099;42.636;23.198;2023-05-10T01:06:13;92131.56;;;8.52;100.00
37206;BME280;23099;42.636;23.198;2023-05-10T01:08:40;92132.41;;;8.57;100.00
37206;BME280;23099;42.636;23.198;2023-05-10T01:11:07;92130.09;;;8.55;100.00
37206;BME280;23099;42.636;23.198;2023-05-10T01:13:35;92142.28;;;8.56;100.00
37206;BME280;23099;42.636;23.198;2023-05-10T01:16:04;92135.84;;;8.57;100.00
37206;BME280;23099;42.636;23.198;2023-05-10T01:18:33;92127.88;;;8.57;100.00
37206;BME280;23099;42.636;23.198;2023-05-10T01:21:15;92124.59;;;8.48;100.00
37206;BME280;23099;42.636;23.198;2023-05-10T01:24:00;92124.00;;;8.55;100.00
37206;BME280;23099;42.636;23.198;2023-05-10T01:26:39;92130.78;;;8.52;100.00
37206;BME280;23099;42.636;23.198;2023-05-10T01:29:32;92125.19;;;8.41;100.00
37206;BME280;23099;42.636;23.198;2023-05-10T01:32:16;92120.53;;;8.38;100.00
37206;BME280;23099;42.636;23.198;2023-05-10T01:34:54;92119.53;;;8.43;100.00
37206;BME280;23099;42.636;23.198;2023-05-10T01:37:31;92115.84;;;8.47;100.00
37206;BME280;23099;42.636;23.198;2023-05-10T01:40:03;92117.22;;;8.57;100.00
37206;BME280;23099;42.636;23.198;2023-05-10T01:42:38;92109.13;;;8.54;100.00
37206;BME280;23099;42.636;23.198;2023-05-10T01:45:13;92109.56;;;8.56;100.00
37206;BME280;23099;42.636;23.198;2023-05-10T01:47:43;92111.19;;;8.60;100.00
37206;BME280;23099;42.636;23.198;2023-05-10T01:50:19;92110.59;;;8.51;100.00
37206;BME280;23099;42.636;23.198;2023-05-10T01:52:50;92115.16;;;8.50;100.00
37206;BME280;23099;42.636;23.198;2023-05-10T01:55:20;92115.16;;;8.50;100.00
37206;BME280;23099;42.636;23.198;2023-05-10T01:57:52;92110.25;;;8.52;100.00
37206;BME280;23099;42.636;23.198;2023-05-10T02:00:19;92110.25;;;8.52;100.00
37206;BME280;23099;42.636;23.198;2023-05-10T02:02:49;92106.03;;;8.51;100.00
37206;BME280;23099;42.636;23.198;2023-05-10T02:05:17;92107.22;;;8.54;100.00
37206;BME280;23099;42.636;23.198;2023-05-10T02:07:45;92115.66;;;8.56;100.00
37206;BME280;23099;42.636;23.198;2023-05-10T02:10:13;92111.00;;;8.53;100.00
37206;BME280;23099;42.636;23.198;2023-05-10T02:12:42;92111.00;;;8.53;100.00
37206;BME280;23099;42.636;23.198;2023-05-10T02:15:11;92103.88;;;8.57;100.00
37206;BME280;23099;42.636;23.198;2023-05-10T02:17:39;92108.78;;;8.55;100.00
37206;BME280;23099;42.636;23.198;2023-05-10T02:20:10;92101.91;;;8.54;100.00
37206;BME280;23099;42.636;23.198;2023-05-10T02:22:39;92101.91;;;8.54;100.00
37206;BME280;23099;42.636;23.198;2023-05-10T02:25:08;92103.13;;;8.57;100.00
37206;BME280;23099;42.636;23.198;2023-05-10T02:27:36;92102.00;;;8.58;100.00
37206;BME280;23099;42.636;23.198;2023-05-10T02:30:03;92091.69;;;8.56;100.00
37206;BME280;23099;42.636;23.198;2023-05-10T02:32:31;92100.34;;;8.53;100.00
37206;BME280;23099;42.636;23.198;2023-05-10T02:35:00;92099.88;;;8.47;100.00
37206;BME280;23099;42.636;23.198;2023-05-10T02:37:29;92089.47;;;8.42;100.00
37206;BME280;23099;42.636;23.198;2023-05-10T02:39:58;92095.47;;;8.39;100.00
37206;BME280;23099;42.636;23.198;2023-05-10T02:42:26;92098.88;;;8.24;100.00
37206;BME280;23099;42.636;23.198;2023-05-10T02:44:56;92102.63;;;8.23;100.00
37206;BME280;23099;42.636;23.198;2023-05-10T02:47:25;92097.50;;;8.14;100.00
37206;BME280;23099;42.636;23.198;2023-05-10T02:49:52;92100.41;;;8.09;100.00
37206;BME280;23099;42.636;23.198;2023-05-10T02:52:23;92103.75;;;8.06;100.00
37206;BME280;23099;42.636;23.198;2023-05-10T02:54:54;92105.22;;;8.04;100.00
37206;BME280;23099;42.636;23.198;2023-05-10T02:57:25;92103.75;;;8.06;100.00
37206;BME280;23099;42.636;23.198;2023-05-10T02:59:53;92101.88;;;8.07;100.00
37206;BME280;23099;42.636;23.198;2023-05-10T03:02:20;92095.06;;;7.94;100.00
37206;BME280;23099;42.636;23.198;2023-05-10T03:04:47;92104.59;;;7.95;100.00
37206;BME280;23099;42.636;23.198;2023-05-10T03:07:14;92101.59;;;7.96;100.00
37206;BME280;23099;42.636;23.198;2023-05-10T03:09:42;92100.47;;;7.97;100.00
37206;BME280;23099;42.636;23.198;2023-05-10T03:12:15;92096.25;;;7.96;100.00
37206;BME280;23099;42.636;23.198;2023-05-10T03:14:53;92099.34;;;7.98;100.00
37206;BME280;23099;42.636;23.198;2023-05-10T03:17:25;92105.78;;;7.97;100.00
37206;BME280;23099;42.636;23.198;2023-05-10T03:19:56;92098.06;;;7.92;100.00
37206;BME280;23099;42.636;23.198;2023-05-10T03:22:26;92102.28;;;7.93;100.00
37206;BME280;23099;42.636;23.198;2023-05-10T03:24:55;92100.19;;;7.87;100.00
37206;BME280;23099;42.636;23.198;2023-05-10T03:27:26;92108.41;;;7.81;100.00
37206;BME280;23099;42.636;23.198;2023-05-10T03:29:54;92096.72;;;7.70;100.00
37206;BME280;23099;42.636;23.198;2023-05-10T03:32:22;92104.09;;;7.61;100.00
37206;BME280;23099;42.636;23.198;2023-05-10T03:34:49;92114.19;;;7.56;100.00
37206;BME280;23099;42.636;23.198;2023-05-10T03:37:15;92105.03;;;7.41;100.00
37206;BME280;23099;42.636;23.198;2023-05-10T03:39:42;92102.16;;;7.46;100.00
37206;BME280;23099;42.636;23.198;2023-05-10T03:42:09;92106.75;;;7.33;100.00
37206;BME280;23099;42.636;23.198;2023-05-10T03:44:38;92110.44;;;7.17;100.00
37206;BME280;23099;42.636;23.198;2023-05-10T03:47:05;92110.63;;;7.24;100.00
37206;BME280;23099;42.636;23.198;2023-05-10T03:49:32;92117.81;;;7.23;100.00
37206;BME280;23099;42.636;23.198;2023-05-10T03:51:58;92117.41;;;7.21;100.00
37206;BME280;23099;42.636;23.198;2023-05-10T03:54:25;92115.63;;;7.13;100.00
37206;BME280;23099;42.636;23.198;2023-05-10T03:56:52;92121.94;;;7.08;100.00
37206;BME280;23099;42.636;23.198;2023-05-10T03:59:18;92125.72;;;7.07;100.00
37206;BME280;23099;42.636;23.198;2023-05-10T04:01:46;92123.97;;;6.99;100.00
37206;BME280;23099;42.636;23.198;2023-05-10T04:04:13;92126.84;;;6.94;100.00
37206;BME280;23099;42.636;23.198;2023-05-10T04:06:40;92122.63;;;6.93;100.00
37206;BME280;23099;42.636;23.198;2023-05-10T04:09:07;92131.38;;;6.94;100.00
37206;BME280;23099;42.636;23.198;2023-05-10T04:11:34;92126.44;;;6.92;100.00
37206;BME280;23099;42.636;23.198;2023-05-10T04:14:01;92128.50;;;6.99;100.00
37206;BME280;23099;42.636;23.198;2023-05-10T04:16:27;92133.69;;;7.07;100.00
37206;BME280;23099;42.636;23.198;2023-05-10T04:18:56;92128.94;;;7.01;100.00
37206;BME280;23099;42.636;23.198;2023-05-10T04:21:22;92124.75;;;7.00;100.00
37206;BME280;23099;42.636;23.198;2023-05-10T04:23:49;92130.81;;;7.13;100.00
37206;BME280;23099;42.636;23.198;2023-05-10T04:26:16;92139.78;;;7.08;100.00
37206;BME280;23099;42.636;23.198;2023-05-10T04:28:43;92137.94;;;6.84;100.00
37206;BME280;23099;42.636;23.198;2023-05-10T04:31:10;92138.50;;;6.78;100.00
37206;BME280;23099;42.636;23.198;2023-05-10T04:33:37;92141.38;;;6.85;100.00
37206;BME280;23099;42.636;23.198;2023-05-10T04:36:06;92136.59;;;6.78;100.00
37206;BME280;23099;42.636;23.198;2023-05-10T04:38:32;92143.91;;;6.81;100.00
37206;BME280;23099;42.636;23.198;2023-05-10T04:41:05;92139.81;;;6.84;100.00
37206;BME280;23099;42.636;23.198;2023-05-10T04:43:32;92133.06;;;6.74;100.00
37206;BME280;23099;42.636;23.198;2023-05-10T04:45:59;92139.03;;;6.83;100.00
37206;BME280;23099;42.636;23.198;2023-05-10T04:48:26;92134.63;;;6.87;100.00
37206;BME280;23099;42.636;23.198;2023-05-10T04:50:52;92136.06;;;6.85;100.00
37206;BME280;23099;42.636;23.198;2023-05-10T04:53:20;92141.69;;;6.83;100.00
37206;BME280;23099;42.636;23.198;2023-05-10T04:55:47;92143.03;;;6.89;100.00
37206;BME280;23099;42.636;23.198;2023-05-10T04:58:14;92136.81;;;6.85;100.00
37206;BME280;23099;42.636;23.198;2023-05-10T05:00:41;92140.59;;;6.84;100.00
37206;BME280;23099;42.636;23.198;2023-05-10T05:03:08;92147.78;;;6.96;100.00
37206;BME280;23099;42.636;23.198;2023-05-10T05:05:34;92144.00;;;6.97;100.00
37206;BME280;23099;42.636;23.198;2023-05-10T05:08:01;92146.97;;;7.07;100.00
37206;BME280;23099;42.636;23.198;2023-05-10T05:10:29;92150.53;;;7.12;100.00
37206;BME280;23099;42.636;23.198;2023-05-10T05:12:56;92150.06;;;7.09;100.00
37206;BME280;23099;42.636;23.198;2023-05-10T05:15:23;92152.84;;;7.13;100.00
37206;BME280;23099;42.636;23.198;2023-05-10T05:17:49;92152.84;;;7.13;100.00
37206;BME280;23099;42.636;23.198;2023-05-10T05:20:16;92150.78;;;7.06;100.00
37206;BME280;23099;42.636;23.198;2023-05-10T05:22:44;92154.09;;;7.03;100.00
37206;BME280;23099;42.636;23.198;2023-05-10T05:25:11;92159.50;;;7.07;100.00
37206;BME280;23099;42.636;23.198;2023-05-10T05:27:39;92157.84;;;7.02;100.00
37206;BME280;23099;42.636;23.198;2023-05-10T05:30:07;92157.53;;;6.92;100.00
37206;BME280;23099;42.636;23.198;2023-05-10T05:32:34;92161.94;;;7.00;100.00
37206;BME280;23099;42.636;23.198;2023-05-10T05:35:00;92163.28;;;7.06;100.00
37206;BME280;23099;42.636;23.198;2023-05-10T05:37:27;92160.50;;;7.15;100.00
37206;BME280;23099;42.636;23.198;2023-05-10T05:39:54;92159.06;;;7.17;100.00
37206;BME280;23099;42.636;23.198;2023-05-10T05:42:20;92157.72;;;7.11;100.00
37206;BME280;23099;42.636;23.198;2023-05-10T05:44:48;92161.81;;;7.21;100.00
37206;BME280;23099;42.636;23.198;2023-05-10T05:47:15;92150.06;;;7.22;100.00
37206;BME280;23099;42.636;23.198;2023-05-10T05:49:42;92163.13;;;7.27;100.00
37206;BME280;23099;42.636;23.198;2023-05-10T05:52:11;92161.47;;;7.22;100.00
37206;BME280;23099;42.636;23.198;2023-05-10T05:54:38;92166.69;;;7.19;100.00
37206;BME280;23099;42.636;23.198;2023-05-10T05:57:04;92171.78;;;7.12;100.00
37206;BME280;23099;42.636;23.198;2023-05-10T05:59:31;92176.44;;;7.15;100.00
37206;BME280;23099;42.636;23.198;2023-05-10T06:01:59;92171.78;;;7.12;100.00
37206;BME280;23099;42.636;23.198;2023-05-10T06:04:26;92170.91;;;7.20;100.00
37206;BME280;23099;42.636;23.198;2023-05-10T06:06:52;92179.09;;;7.15;100.00
37206;BME280;23099;42.636;23.198;2023-05-10T06:09:19;92173.22;;;7.21;100.00
37206;BME280;23099;42.636;23.198;2023-05-10T06:11:46;92174.75;;;7.22;100.00
37206;BME280;23099;42.636;23.198;2023-05-10T06:14:13;92176.75;;;7.25;100.00
37206;BME280;23099;42.636;23.198;2023-05-10T06:16:40;92172.66;;;7.28;100.00
37206;BME280;23099;42.636;23.198;2023-05-10T06:19:08;92181.19;;;7.33;100.00
37206;BME280;23099;42.636;23.198;2023-05-10T06:21:34;92176.75;;;7.25;100.00
37206;BME280;23099;42.636;23.198;2023-05-10T06:24:01;92183.69;;;7.42;100.00
37206;BME280;23099;42.636;23.198;2023-05-10T06:26:28;92176.38;;;7.39;100.00
37206;BME280;23099;42.636;23.198;2023-05-10T06:28:55;92180.81;;;7.47;100.00
37206;BME280;23099;42.636;23.198;2023-05-10T06:31:22;92173.63;;;7.48;100.00
37206;BME280;23099;42.636;23.198;2023-05-10T06:33:48;92182.44;;;7.52;100.00
37206;BME280;23099;42.636;23.198;2023-05-10T06:36:16;92181.00;;;7.54;100.00
37206;BME280;23099;42.636;23.198;2023-05-10T06:38:43;92186.78;;;7.56;100.00
37206;BME280;23099;42.636;23.198;2023-05-10T06:41:10;92185.09;;;7.64;100.00
37206;BME280;23099;42.636;23.198;2023-05-10T06:43:36;92186.41;;;7.70;100.00
37206;BME280;23099;42.636;23.198;2023-05-10T06:46:05;92191.50;;;7.75;100.00
37206;BME280;23099;42.636;23.198;2023-05-10T06:48:32;92184.84;;;7.69;100.00
37206;BME280;23099;42.636;23.198;2023-05-10T06:50:59;92185.44;;;7.62;100.00
37206;BME280;23099;42.636;23.198;2023-05-10T06:53:27;92188.94;;;7.66;100.00
37206;BME280;23099;42.636;23.198;2023-05-10T06:55:53;92197.03;;;7.70;100.00
37206;BME280;23099;42.636;23.198;2023-05-10T06:58:20;92194.50;;;7.73;100.00
37206;BME280;23099;42.636;23.198;2023-05-10T07:00:47;92194.53;;;7.61;100.00
37206;BME280;23099;42.636;23.198;2023-05-10T07:03:13;92196.03;;;7.74;100.00
37206;BME280;23099;42.636;23.198;2023-05-10T07:05:40;92203.53;;;7.85;100.00
37206;BME280;23099;42.636;23.198;2023-05-10T07:22:50;92204.75;;;8.43;100.00
37206;BME280;23099;42.636;23.198;2023-05-10T07:25:17;92204.47;;;8.32;100.00
37206;BME280;23099;42.636;23.198;2023-05-10T07:27:44;92212.34;;;8.29;100.00
37206;BME280;23099;42.636;23.198;2023-05-10T07:30:13;92204.41;;;8.16;100.00
37206;BME280;23099;42.636;23.198;2023-05-10T07:32:40;92210.66;;;8.08;100.00
37206;BME280;23099;42.636;23.198;2023-05-10T07:35:08;92211.69;;;8.04;100.00
37206;BME280;23099;42.636;23.198;2023-05-10T07:37:35;92213.63;;;7.91;100.00
37206;BME280;23099;42.636;23.198;2023-05-10T07:40:04;92213.78;;;7.98;100.00
37206;BME280;23099;42.636;23.198;2023-05-10T07:42:30;92212.34;;;8.01;100.00
37206;BME280;23099;42.636;23.198;2023-05-10T07:44:57;92207.59;;;7.94;100.00
37206;BME280;23099;42.636;23.198;2023-05-10T07:47:24;92219.13;;;7.98;100.00
37206;BME280;23099;42.636;23.198;2023-05-10T07:49:51;92213.13;;;8.01;100.00
37206;BME280;23099;42.636;23.198;2023-05-10T07:52:17;92215.34;;;7.99;100.00
37206;BME280;23099;42.636;23.198;2023-05-10T07:54:44;92219.41;;;8.09;100.00
37206;BME280;23099;42.636;23.198;2023-05-10T07:57:12;92214.78;;;8.06;100.00
37206;BME280;23099;42.636;23.198;2023-05-10T07:59:42;92217.13;;;8.07;100.00
37206;BME280;23099;42.636;23.198;2023-05-10T08:02:09;92225.94;;;8.11;100.00
37206;BME280;23099;42.636;23.198;2023-05-10T08:04:36;92222.94;;;8.13;100.00
37206;BME280;23099;42.636;23.198;2023-05-10T08:07:03;92218.69;;;8.24;100.00
37206;BME280;23099;42.636;23.198;2023-05-10T08:09:29;92218.28;;;8.22;100.00
37206;BME280;23099;42.636;23.198;2023-05-10T08:11:56;92219.78;;;8.23;100.00
37206;BME280;23099;42.636;23.198;2023-05-10T08:14:27;92218.69;;;8.24;100.00
37206;BME280;23099;42.636;23.198;2023-05-10T08:16:54;92220.81;;;8.19;100.00
37206;BME280;23099;42.636;23.198;2023-05-10T08:19:21;92198.47;;;8.07;100.00
37206;BME280;23099;42.636;23.198;2023-05-10T08:21:49;92218.41;;;8.13;100.00
37206;BME280;23099;42.636;23.198;2023-05-10T08:24:16;92220.00;;;8.30;100.00
37206;BME280;23099;42.636;23.198;2023-05-10T08:26:42;92225.88;;;8.24;100.00
37206;BME280;23099;42.636;23.198;2023-05-10T08:29:09;92225.88;;;8.24;100.00
37206;BME280;23099;42.636;23.198;2023-05-10T08:31:37;92224.00;;;8.36;100.00
37206;BME280;23099;42.636;23.198;2023-05-10T08:34:04;92225.63;;;8.41;100.00
37206;BME280;23099;42.636;23.198;2023-05-10T08:36:30;92224.44;;;8.26;100.00
37206;BME280;23099;42.636;23.198;2023-05-10T08:38:57;92226.88;;;8.31;100.00
37206;BME280;23099;42.636;23.198;2023-05-10T08:41:25;92228.44;;;8.32;100.00
37206;BME280;23099;42.636;23.198;2023-05-10T08:43:53;92223.56;;;8.34;100.00
37206;BME280;23099;42.636;23.198;2023-05-10T08:46:21;92228.16;;;8.49;100.00
37206;BME280;23099;42.636;23.198;2023-05-10T08:48:50;92222.88;;;8.53;100.00
37206;BME280;23099;42.636;23.198;2023-05-10T08:51:19;92222.56;;;8.70;100.00
37206;BME280;23099;42.636;23.198;2023-05-10T08:53:46;92222.44;;;8.79;100.00
37206;BME280;23099;42.636;23.198;2023-05-10T08:56:15;92227.66;;;8.91;100.00
37206;BME280;23099;42.636;23.198;2023-05-10T08:58:43;92224.03;;;8.99;100.00
37206;BME280;23099;42.636;23.198;2023-05-10T09:01:11;92230.06;;;9.12;100.00
37206;BME280;23099;42.636;23.198;2023-05-10T09:03:39;92213.56;;;9.06;100.00
37206;BME280;23099;42.636;23.198;2023-05-10T09:06:07;92223.53;;;9.09;100.00
37206;BME280;23099;42.636;23.198;2023-05-10T09:08:36;92225.00;;;9.23;100.00
37206;BME280;23099;42.636;23.198;2023-05-10T09:11:04;92224.63;;;9.24;100.00
37206;BME280;23099;42.636;23.198;2023-05-10T09:13:31;92230.22;;;9.35;100.00
37206;BME280;23099;42.636;23.198;2023-05-10T09:15:59;92226.25;;;9.44;100.00
37206;BME280;23099;42.636;23.198;2023-05-10T09:18:27;92229.25;;;9.43;100.00
37206;BME280;23099;42.636;23.198;2023-05-10T09:20:54;92224.56;;;9.36;100.00
37206;BME280;23099;42.636;23.198;2023-05-10T09:23:22;92215.13;;;9.58;100.00
37206;BME280;23099;42.636;23.198;2023-05-10T09:26:02;92219.84;;;9.65;100.00
37206;BME280;23099;42.636;23.198;2023-05-10T09:28:31;92223.56;;;9.44;100.00
37206;BME280;23099;42.636;23.198;2023-05-10T09:30:58;92229.41;;;9.66;100.00
37206;BME280;23099;42.636;23.198;2023-05-10T09:33:25;92221.25;;;9.78;100.00
37206;BME280;23099;42.636;23.198;2023-05-10T09:35:52;92210.53;;;9.93;100.00
37206;BME280;23099;42.636;23.198;2023-05-10T09:38:19;92215.31;;;10.04;97.96
37206;BME280;23099;42.636;23.198;2023-05-10T09:40:52;92214.50;;;10.19;99.21
37206;BME280;23099;42.636;23.198;2023-05-10T09:43:20;92210.13;;;10.30;99.28
37206;BME280;23099;42.636;23.198;2023-05-10T09:45:48;92212.88;;;10.34;97.20
37206;BME280;23099;42.636;23.198;2023-05-10T09:48:15;92209.84;;;10.35;97.53
37206;BME280;23099;42.636;23.198;2023-05-10T09:50:41;92208.00;;;10.39;96.73
37206;BME280;23099;42.636;23.198;2023-05-10T09:53:08;92210.78;;;10.66;95.44
37206;BME280;23099;42.636;23.198;2023-05-10T09:55:39;92207.09;;;10.74;96.30
37206;BME280;23099;42.636;23.198;2023-05-10T09:58:07;92203.13;;;10.87;93.17
37206;BME280;23099;42.636;23.198;2023-05-10T10:00:36;92197.91;;;10.94;94.20
37206;BME280;23099;42.636;23.198;2023-05-10T10:03:03;92202.84;;;10.92;91.65
37206;BME280;23099;42.636;23.198;2023-05-10T10:05:30;92200.94;;;10.92;92.07
37206;BME280;23099;42.636;23.198;2023-05-10T10:07:58;92196.06;;;10.98;95.88
37206;BME280;23099;42.636;23.198;2023-05-10T10:10:25;92192.97;;;11.19;94.90
37206;BME280;23099;42.636;23.198;2023-05-10T10:12:52;92190.38;;;11.26;93.41
37206;BME280;23099;42.636;23.198;2023-05-10T10:15:21;92189.81;;;11.13;90.75
37206;BME280;23099;42.636;23.198;2023-05-10T10:17:48;92194.00;;;11.11;89.74
37206;BME280;23099;42.636;23.198;2023-05-10T10:20:17;92191.00;;;11.16;89.84
37206;BME280;23099;42.636;23.198;2023-05-10T10:22:44;92194.72;;;11.11;90.75
37206;BME280;23099;42.636;23.198;2023-05-10T10:25:13;92191.41;;;11.18;90.95
37206;BME280;23099;42.636;23.198;2023-05-10T10:27:46;92208.09;;;11.11;88.58
37206;BME280;23099;42.636;23.198;2023-05-10T10:30:23;92204.00;;;11.17;89.01
37206;BME280;23099;42.636;23.198;2023-05-10T10:33:06;92203.19;;;11.13;88.17
37206;BME280;23099;42.636;23.198;2023-05-10T10:35:40;92209.13;;;11.03;88.49
37206;BME280;23099;42.636;23.198;2023-05-10T10:38:08;92203.06;;;11.06;88.72
37206;BME280;23099;42.636;23.198;2023-05-10T10:40:35;92202.59;;;10.78;89.43
37206;BME280;23099;42.636;23.198;2023-05-10T10:43:22;92206.75;;;10.98;91.63
37206;BME280;23099;42.636;23.198;2023-05-10T10:46:12;92202.41;;;11.13;90.33
37206;BME280;23099;42.636;23.198;2023-05-10T10:48:40;92201.06;;;11.26;88.70
37206;BME280;23099;42.636;23.198;2023-05-10T10:51:07;92205.84;;;11.13;88.35
37206;BME280;23099;42.636;23.198;2023-05-10T10:53:33;92214.13;;;11.05;87.88
37206;BME280;23099;42.636;23.198;2023-05-10T10:56:08;92206.94;;;10.86;88.09
37206;BME280;23099;42.636;23.198;2023-05-10T10:58:36;92202.72;;;10.85;89.88
37206;BME280;23099;42.636;23.198;2023-05-10T11:01:10;92200.03;;;10.85;88.72
37206;BME280;23099;42.636;23.198;2023-05-10T11:03:39;92209.53;;;10.82;87.54
37206;BME280;23099;42.636;23.198;2023-05-10T11:06:06;92203.84;;;10.84;88.05
37206;BME280;23099;42.636;23.198;2023-05-10T11:08:41;92205.69;;;10.80;88.44
37206;BME280;23099;42.636;23.198;2023-05-10T11:11:08;92205.81;;;10.87;90.12
37206;BME280;23099;42.636;23.198;2023-05-10T11:13:38;92205.56;;;10.73;89.51
37206;BME280;23099;42.636;23.198;2023-05-10T11:16:13;92199.22;;;10.81;88.85
37206;BME280;23099;42.636;23.198;2023-05-10T11:18:52;92206.81;;;10.79;88.89
37206;BME280;23099;42.636;23.198;2023-05-10T11:21:19;92204.38;;;10.70;88.86
37206;BME280;23099;42.636;23.198;2023-05-10T11:23:50;92204.19;;;10.59;88.36
37206;BME280;23099;42.636;23.198;2023-05-10T11:26:17;92209.00;;;10.50;89.59
37206;BME280;23099;42.636;23.198;2023-05-10T11:28:45;92215.13;;;10.51;88.90
37206;BME280;23099;42.636;23.198;2023-05-10T11:31:14;92204.00;;;10.30;89.75
37206;BME280;23099;42.636;23.198;2023-05-10T11:33:46;92216.72;;;10.17;90.08
37206;BME280;23099;42.636;23.198;2023-05-10T11:36:14;92214.81;;;10.17;91.38
37206;BME280;23099;42.636;23.198;2023-05-10T11:38:41;92210.72;;;10.20;91.81
37206;BME280;23099;42.636;23.198;2023-05-10T11:41:08;92211.56;;;10.24;90.98
37206;BME280;23099;42.636;23.198;2023-05-10T11:43:37;92208.88;;;10.24;92.16
37206;BME280;23099;42.636;23.198;2023-05-10T11:46:04;92219.16;;;10.22;89.54
37206;BME280;23099;42.636;23.198;2023-05-10T11:48:31;92207.88;;;10.32;91.34
37206;BME280;23099;42.636;23.198;2023-05-10T11:51:00;92208.72;;;10.36;90.30
37206;BME280;23099;42.636;23.198;2023-05-10T11:53:27;92202.38;;;10.44;90.80
37206;BME280;23099;42.636;23.198;2023-05-10T11:55:54;92201.19;;;10.42;89.96
37206;BME280;23099;42.636;23.198;2023-05-10T11:58:21;92210.41;;;10.44;90.18
37206;BME280;23099;42.636;23.198;2023-05-10T12:00:48;92208.84;;;10.43;89.44
37206;BME280;23099;42.636;23.198;2023-05-10T12:03:16;92199.19;;;10.58;89.24
37206;BME280;23099;42.636;23.198;2023-05-10T12:05:43;92198.56;;;10.65;88.86
37206;BME280;23099;42.636;23.198;2023-05-10T12:08:12;92197.28;;;10.58;90.81
37206;BME280;23099;42.636;23.198;2023-05-10T12:10:39;92201.00;;;10.73;90.28
37206;BME280;23099;42.636;23.198;2023-05-10T12:13:10;92193.56;;;10.86;88.29
37206;BME280;23099;42.636;23.198;2023-05-10T12:15:37;92193.13;;;10.84;89.19
37206;BME280;23099;42.636;23.198;2023-05-10T12:18:04;92191.84;;;10.74;87.68
37206;BME280;23099;42.636;23.198;2023-05-10T12:20:31;92194.94;;;10.76;88.48
37206;BME280;23099;42.636;23.198;2023-05-10T12:22:58;92197.25;;;10.78;89.68
37206;BME280;23099;42.636;23.198;2023-05-10T12:25:31;92199.56;;;10.79;88.45
37206;BME280;23099;42.636;23.198;2023-05-10T12:27:59;92198.91;;;10.86;89.74
37206;BME280;23099;42.636;23.198;2023-05-10T12:30:27;92197.06;;;10.90;88.35
37206;BME280;23099;42.636;23.198;2023-05-10T12:32:54;92195.03;;;10.83;87.47
37206;BME280;23099;42.636;23.198;2023-05-10T12:35:25;92185.13;;;10.84;87.26
37206;BME280;23099;42.636;23.198;2023-05-10T12:37:52;92179.66;;;10.77;87.20
37206;BME280;23099;42.636;23.198;2023-05-10T12:40:19;92191.06;;;10.74;87.22
37206;BME280;23099;42.636;23.198;2023-05-10T12:42:47;92190.38;;;10.77;87.12
37206;BME280;23099;42.636;23.198;2023-05-10T12:45:14;92189.75;;;10.64;87.01
37206;BME280;23099;42.636;23.198;2023-05-10T12:47:40;92181.78;;;10.68;87.46
37206;BME280;23099;42.636;23.198;2023-05-10T12:50:08;92185.13;;;10.61;88.85
37206;BME280;23099;42.636;23.198;2023-05-10T12:52:34;92180.91;;;10.60;89.28
37206;BME280;23099;42.636;23.198;2023-05-10T12:55:01;92179.88;;;10.45;88.89
37206;BME280;23099;42.636;23.198;2023-05-10T12:57:28;92171.88;;;10.45;90.81
37206;BME280;23099;42.636;23.198;2023-05-10T12:59:57;92168.50;;;10.48;90.29
37206;BME280;23099;42.636;23.198;2023-05-10T13:02:23;92169.44;;;10.59;90.06
37206;BME280;23099;42.636;23.198;2023-05-10T13:04:50;92166.69;;;10.56;89.14
37206;BME280;23099;42.636;23.198;2023-05-10T13:07:17;92163.25;;;10.55;89.46
37206;BME280;23099;42.636;23.198;2023-05-10T13:09:44;92158.25;;;10.54;90.10